CDT,Max TemperatureF,Mean TemperatureF,Min TemperatureF,Max Dew PointF,MeanDew PointF,Min DewpointF,Max Humidity, Mean Humidity, Min Humidity, Max Sea Level PressureIn, Mean Sea Level PressureIn, Min Sea Level PressureIn, Max VisibilityMiles, Mean VisibilityMiles, Min VisibilityMiles, Max Wind SpeedMPH, Mean Wind SpeedMPH, Max Gust SpeedMPH,PrecipitationIn, CloudCover, Events, WindDirDegrees
2012-10-1,83,77,70,76,72,63,94,84,65,29.73,29.63,29.59,10,8,1,31,16,44,1.31,7,Rain-Thunderstorm,198
2012-10-2,79,72,63,63,61,59,90,71,49,30.02,29.86,29.73,10,10,10,13,4,20,0.00,5,,296
2012-10-3,81,70,61,64,60,57,89,71,51,30.16,30.10,30.02,10,10,10,8,5,,0.00,5,,35
2012-10-4,85,74,63,71,66,58,100,86,40,30.23,30.19,30.14,10,6,0,9,5,,0.00,7,Fog,21
2012-10-5,82,74,67,72,70,67,96,88,71,30.15,30.09,30.01,10,10,5,7,4,,0.00,6,Rain,37
2012-10-6,88,78,68,72,69,63,100,81,44,30.02,29.98,29.91,10,8,2,10,4,,0.00,1,,340
2012-10-7,81,72,61,65,62,55,94,79,54,30.06,30.02,29.98,10,9,6,15,9,,0.00,3,,358
2012-10-8,80,68,57,58,55,51,81,66,46,30.11,30.06,30.01,10,10,10,14,9,,0.00,2,,1
2012-10-9,78,66,54,64,58,51,92,75,52,30.12,30.08,30.04,10,10,7,9,7,,0.00,1,,24
2012-10-10,83,70,57,61,59,56,96,73,41,30.17,30.12,30.08,10,8,4,12,5,,0.00,0,,360
2012-10-11,82,70,59,65,60,57,94,75,44,30.25,30.19,30.15,10,9,6,9,5,,0.00,0,,34
2012-10-12,83,70,59,64,61,57,95,73,47,30.27,30.22,30.18,10,9,5,9,3,,0.00,0,,355
2012-10-13,84,74,65,69,65,61,90,74,51,30.25,30.20,30.16,10,10,10,12,5,,0.00,1,,97
2012-10-14,83,76,69,70,68,64,91,81,62,30.18,30.11,30.02,10,9,6,9,6,18,0.00,3,,113
2012-10-15,88,76,64,72,64,54,94,71,38,30.01,29.95,29.87,10,9,6,10,4,,0.00,2,Fog,330
2012-10-16,79,64,52,54,46,38,85,53,26,30.01,29.94,29.88,10,10,10,13,6,,0.00,4,,15
2012-10-17,79,70,61,62,55,48,78,59,43,29.94,29.88,29.82,10,10,10,13,4,,0.00,3,,111
2012-10-18,77,70,64,70,66,63,100,89,73,29.88,29.83,29.78,10,8,1,20,8,26,2.28,6,Rain-Thunderstorm,60
2012-10-19,77,64,53,61,47,36,88,55,23,29.95,29.89,29.84,10,10,10,12,4,,0.00,0,,293
2012-10-20,79,64,48,49,44,37,82,56,23,30.01,29.96,29.91,10,10,10,7,3,,0.00,0,,311
2012-10-21,81,66,51,53,48,45,86,59,29,30.14,30.08,30.01,10,10,10,14,3,,0.00,1,,15
2012-10-22,79,68,57,61,55,50,91,67,44,30.17,30.12,30.08,10,10,10,8,3,,0.00,1,,38
2012-10-23,79,68,58,63,59,54,90,73,47,30.14,30.09,30.04,10,10,8,8,4,,0.00,1,,67
2012-10-24,82,71,60,65,61,57,91,73,48,30.13,30.06,30.01,10,10,9,9,4,,0.00,1,,42
2012-10-25,83,73,63,66,61,58,88,69,45,30.03,29.98,29.94,10,10,10,10,5,,0.00,1,,50
2012-10-26,86,75,64,66,62,59,91,67,40,29.98,29.91,29.86,10,10,8,16,6,32,0.00,1,,10
2012-10-27,68,61,53,63,54,48,94,78,58,29.92,29.87,29.82,10,10,7,21,14,29,0.00,5,,339
2012-10-28,67,59,52,48,43,36,80,61,40,30.01,29.91,29.84,10,10,10,23,13,30,0.00,3,,332
2012-10-29,63,54,44,35,31,28,68,46,26,30.06,30.00,29.92,10,10,10,17,13,29,0.00,0,,326
2012-10-30,66,53,40,35,31,25,71,47,25,30.03,29.99,29.92,10,10,10,21,12,29,0.00,1,,302
2012-10-31,74,59,45,58,44,37,83,58,27,30.06,30.00,29.95,10,10,9,15,9,21,0.00,1,,270